createdAt,value
2023-04-26T00:12:26.073Z,1.08
2023-04-26T00:27:25.664Z,1.04
2023-04-26T00:42:25.815Z,0.23
2023-04-26T00:57:26.174Z,0.48
2023-04-26T01:12:25.713Z,1.01
2023-04-26T01:27:26.243Z,1.07
2023-04-26T01:42:25.355Z,0.7
2023-04-26T01:57:25.806Z,0.73
2023-04-26T02:12:26.233Z,0.75
2023-04-26T02:27:25.452Z,0.79
2023-04-26T02:42:25.897Z,1.09
2023-04-26T02:57:25.310Z,0.82
2023-04-26T03:12:25.524Z,0.73
2023-04-26T03:27:25.756Z,0.63
2023-04-26T03:42:25.288Z,7.23
2023-04-26T03:57:25.658Z,4.03
2023-04-26T04:12:25.189Z,6.1
2023-04-26T04:27:25.625Z,7.24
2023-04-26T04:42:25.926Z,3.03
2023-04-26T04:57:25.479Z,4.73
2023-04-26T05:12:25.740Z,4.62
2023-04-26T05:27:26.113Z,4.37
2023-04-26T05:42:25.526Z,9.54
2023-04-26T05:57:25.851Z,18.7
2023-04-26T06:12:25.345Z,8.12
2023-04-26T06:27:25.393Z,12.87
2023-04-26T06:42:26.109Z,19.27
2023-04-26T06:57:25.658Z,3.16
2023-04-26T08:12:25.858Z,3.6
2023-04-26T08:27:41.896Z,1.03
2023-04-26T08:42:54.308Z,1.79
2023-04-26T08:57:25.836Z,1.24
2023-04-26T09:12:25.828Z,0.89
2023-04-26T09:27:26.106Z,1.09
2023-04-26T09:42:26.110Z,1.57
2023-04-26T09:57:26.576Z,1.17
2023-04-26T10:12:26.749Z,1
2023-04-26T10:27:30.664Z,0.83
2023-04-26T10:42:26.725Z,0.7
2023-04-26T10:57:27.014Z,0.76
2023-04-26T11:12:26.834Z,0.99
2023-04-26T15:57:26.339Z,1.23
2023-04-26T16:12:31.362Z,1.44
2023-04-26T16:27:26.456Z,1.25
2023-04-26T16:42:27.361Z,1.77
2023-04-26T17:12:26.700Z,3.2
2023-04-26T17:27:25.625Z,6.17
2023-04-26T17:57:27.814Z,6.69
2023-04-26T18:27:25.721Z,5.63
2023-04-26T19:12:25.725Z,5.04
2023-04-26T19:27:25.898Z,4.5
2023-04-26T19:42:25.617Z,3.42
2023-04-26T19:57:25.919Z,4.64
2023-04-26T20:12:25.781Z,6.16
2023-04-26T20:27:25.688Z,3.79
2023-04-26T20:42:26.208Z,4.53
2023-04-26T20:57:26.129Z,4.03
2023-04-26T21:12:26.339Z,3.61
